Sect Las Pelas, Puerto Rico
Current Conditions -  °F | °C
As of 12:50 AM on Tuesday 23 Dec 2014 (Local Time) from TJPS Reporting Station
Few Clouds Few Clouds  
Wind Chill: 72°   Ceiling: Unl
Heat Index: 72°   Visibility: 10mi
Dew Point: 68°   Wind: 6mph
Humidity: 88%   Direction: 50°NE
Pressure: 29.99"   Gusts: NA
Location:  18.0306°N, 66.8507°W
Report Text: TJPS 230450Z 05005KT 10SM FEW030 22/20 A2999
Loading
Personal Weather Stations






























Interactive Weather Map New forecast layout! Learn more

10-Day Weather Forecast

Advertisements
Track Severe Weather on mobile